Bishops Stortford, United Kingdom
Current Conditions -  °F | °C
As of 10:50 PM on Monday 20 Oct 2014 (Local Time) from EGSS Reporting Station
Scattered Clouds Scattered Clouds  
Wind Chill: 54°   Ceiling: Unl
Heat Index: 54°   Visibility: 6mi
Dew Point: 52°   Wind: 13mph
Humidity: 94%   Direction: 220°SW
Pressure: 29.85"   Gusts: NA
Location:  51.87°N, 0.16°E
Report Text: EGSS 202150Z 22011KT 9999 FEW023 SCT032 12/11 Q1011
Loading
Personal Weather Stations






























Interactive Weather Map
Tropical Storm Tracking
New forecast layout! Learn more

10-Day Weather Forecast

Advertisements
Track Severe Weather on mobile